sensor_id;sensor_type;location;lat;lon;timestamp;P1;durP1;ratioP1;P2;durP2;ratioP2
12912;SDS011;6524;51.368;11.984;2023-12-07T00:02:40;12.93;;;10.23;;
12912;SDS011;6524;51.368;11.984;2023-12-07T00:07:41;12.27;;;9.73;;
12912;SDS011;6524;51.368;11.984;2023-12-07T00:12:41;13.43;;;10.83;;
12912;SDS011;6524;51.368;11.984;2023-12-07T00:17:41;12.03;;;9.97;;
12912;SDS011;6524;51.368;11.984;2023-12-07T00:22:42;13.87;;;11.40;;
12912;SDS011;6524;51.368;11.984;2023-12-07T00:27:43;15.67;;;12.27;;
12912;SDS011;6524;51.368;11.984;2023-12-07T00:32:43;15.07;;;10.83;;
12912;SDS011;6524;51.368;11.984;2023-12-07T00:37:44;15.30;;;11.43;;
12912;SDS011;6524;51.368;11.984;2023-12-07T00:42:44;15.10;;;12.07;;
12912;SDS011;6524;51.368;11.984;2023-12-07T00:47:45;15.47;;;11.83;;
12912;SDS011;6524;51.368;11.984;2023-12-07T00:52:45;13.00;;;10.50;;
12912;SDS011;6524;51.368;11.984;2023-12-07T00:57:46;12.43;;;10.73;;
12912;SDS011;6524;51.368;11.984;2023-12-07T05:01:44;16.03;;;11.63;;
12912;SDS011;6524;51.368;11.984;2023-12-07T05:06:44;15.37;;;12.33;;
12912;SDS011;6524;51.368;11.984;2023-12-07T05:11:45;15.83;;;11.70;;
12912;SDS011;6524;51.368;11.984;2023-12-07T05:16:45;16.83;;;12.60;;
12912;SDS011;6524;51.368;11.984;2023-12-07T05:21:48;15.67;;;12.30;;
12912;SDS011;6524;51.368;11.984;2023-12-07T05:26:48;16.47;;;11.43;;
12912;SDS011;6524;51.368;11.984;2023-12-07T05:31:49;17.33;;;12.67;;
12912;SDS011;6524;51.368;11.984;2023-12-07T05:36:50;16.53;;;12.37;;
12912;SDS011;6524;51.368;11.984;2023-12-07T05:41:51;16.73;;;11.93;;
12912;SDS011;6524;51.368;11.984;2023-12-07T05:46:51;16.70;;;12.47;;
12912;SDS011;6524;51.368;11.984;2023-12-07T05:51:52;18.13;;;12.93;;
12912;SDS011;6524;51.368;11.984;2023-12-07T05:56:52;17.00;;;12.63;;
12912;SDS011;6524;51.368;11.984;2023-12-07T06:01:53;16.40;;;12.13;;
12912;SDS011;6524;51.368;11.984;2023-12-07T06:06:53;17.77;;;12.97;;
12912;SDS011;6524;51.368;11.984;2023-12-07T06:11:54;15.63;;;12.50;;
12912;SDS011;6524;51.368;11.984;2023-12-07T06:16:54;16.70;;;12.77;;
12912;SDS011;6524;51.368;11.984;2023-12-07T06:21:55;19.23;;;16.53;;
12912;SDS011;6524;51.368;11.984;2023-12-07T06:26:57;17.03;;;13.13;;
12912;SDS011;6524;51.368;11.984;2023-12-07T06:31:58;17.07;;;12.47;;
12912;SDS011;6524;51.368;11.984;2023-12-07T06:37:00;17.00;;;12.13;;
12912;SDS011;6524;51.368;11.984;2023-12-07T06:42:00;15.90;;;12.03;;
12912;SDS011;6524;51.368;11.984;2023-12-07T06:47:00;18.17;;;12.87;;
12912;SDS011;6524;51.368;11.984;2023-12-07T06:52:03;17.60;;;12.60;;
12912;SDS011;6524;51.368;11.984;2023-12-07T06:57:07;16.67;;;12.27;;
12912;SDS011;6524;51.368;11.984;2023-12-07T07:02:08;16.30;;;12.07;;
12912;SDS011;6524;51.368;11.984;2023-12-07T07:07:08;14.70;;;11.77;;
12912;SDS011;6524;51.368;11.984;2023-12-07T07:12:08;15.50;;;12.13;;
12912;SDS011;6524;51.368;11.984;2023-12-07T07:17:09;16.17;;;11.80;;
12912;SDS011;6524;51.368;11.984;2023-12-07T07:22:09;16.07;;;12.30;;
12912;SDS011;6524;51.368;11.984;2023-12-07T07:27:09;14.83;;;11.60;;
12912;SDS011;6524;51.368;11.984;2023-12-07T07:32:10;14.13;;;11.07;;
12912;SDS011;6524;51.368;11.984;2023-12-07T07:37:10;18.77;;;12.47;;
12912;SDS011;6524;51.368;11.984;2023-12-07T07:42:11;15.00;;;11.90;;
12912;SDS011;6524;51.368;11.984;2023-12-07T07:47:11;17.53;;;11.90;;
12912;SDS011;6524;51.368;11.984;2023-12-07T07:52:12;14.63;;;11.60;;
12912;SDS011;6524;51.368;11.984;2023-12-07T07:57:12;15.10;;;11.47;;
12912;SDS011;6524;51.368;11.984;2023-12-07T08:02:12;13.40;;;10.80;;
12912;SDS011;6524;51.368;11.984;2023-12-07T08:07:13;16.40;;;11.13;;
12912;SDS011;6524;51.368;11.984;2023-12-07T08:12:13;14.23;;;10.90;;
12912;SDS011;6524;51.368;11.984;2023-12-07T08:17:14;13.33;;;10.93;;
12912;SDS011;6524;51.368;11.984;2023-12-07T08:22:17;16.83;;;11.87;;
12912;SDS011;6524;51.368;11.984;2023-12-07T08:27:18;17.23;;;12.30;;
12912;SDS011;6524;51.368;11.984;2023-12-07T08:32:18;16.03;;;12.00;;
12912;SDS011;6524;51.368;11.984;2023-12-07T08:37:19;17.03;;;12.63;;
12912;SDS011;6524;51.368;11.984;2023-12-07T08:42:19;17.53;;;13.20;;
12912;SDS011;6524;51.368;11.984;2023-12-07T08:47:20;15.67;;;11.73;;
12912;SDS011;6524;51.368;11.984;2023-12-07T08:52:21;22.03;;;14.37;;
12912;SDS011;6524;51.368;11.984;2023-12-07T08:57:21;17.43;;;13.17;;
12912;SDS011;6524;51.368;11.984;2023-12-07T09:02:22;17.92;;;12.77;;
12912;SDS011;6524;51.368;11.984;2023-12-07T09:07:22;17.47;;;12.93;;
12912;SDS011;6524;51.368;11.984;2023-12-07T09:12:23;16.40;;;11.80;;
12912;SDS011;6524;51.368;11.984;2023-12-07T09:17:23;17.53;;;12.93;;
12912;SDS011;6524;51.368;11.984;2023-12-07T09:22:23;16.27;;;12.32;;
12912;SDS011;6524;51.368;11.984;2023-12-07T09:27:25;17.77;;;12.90;;
12912;SDS011;6524;51.368;11.984;2023-12-07T09:32:25;16.07;;;12.13;;
12912;SDS011;6524;51.368;11.984;2023-12-07T09:37:28;16.97;;;13.30;;
12912;SDS011;6524;51.368;11.984;2023-12-07T09:42:28;17.73;;;12.93;;
12912;SDS011;6524;51.368;11.984;2023-12-07T09:47:28;17.10;;;12.60;;
12912;SDS011;6524;51.368;11.984;2023-12-07T09:52:30;19.17;;;13.07;;
12912;SDS011;6524;51.368;11.984;2023-12-07T09:57:31;18.03;;;13.60;;
12912;SDS011;6524;51.368;11.984;2023-12-07T10:02:36;18.73;;;14.80;;
12912;SDS011;6524;51.368;11.984;2023-12-07T10:07:39;18.03;;;13.20;;
12912;SDS011;6524;51.368;11.984;2023-12-07T10:13:14;16.52;;;12.88;;
12912;SDS011;6524;51.368;11.984;2023-12-07T10:18:07;19.53;;;13.67;;
12912;SDS011;6524;51.368;11.984;2023-12-07T10:23:08;18.67;;;14.33;;
12912;SDS011;6524;51.368;11.984;2023-12-07T10:28:09;17.60;;;12.47;;
12912;SDS011;6524;51.368;11.984;2023-12-07T10:33:12;19.55;;;14.23;;
12912;SDS011;6524;51.368;11.984;2023-12-07T10:38:13;17.30;;;13.37;;
12912;SDS011;6524;51.368;11.984;2023-12-07T10:43:13;18.53;;;13.13;;
12912;SDS011;6524;51.368;11.984;2023-12-07T10:48:16;19.30;;;14.00;;
12912;SDS011;6524;51.368;11.984;2023-12-07T10:53:21;18.27;;;13.60;;
12912;SDS011;6524;51.368;11.984;2023-12-07T10:58:27;21.10;;;14.60;;
12912;SDS011;6524;51.368;11.984;2023-12-07T11:03:28;18.65;;;13.45;;
12912;SDS011;6524;51.368;11.984;2023-12-07T11:08:39;18.90;;;13.93;;
12912;SDS011;6524;51.368;11.984;2023-12-07T11:13:45;19.23;;;14.35;;
12912;SDS011;6524;51.368;11.984;2023-12-07T11:18:53;17.80;;;13.50;;
12912;SDS011;6524;51.368;11.984;2023-12-07T11:23:54;18.48;;;13.65;;
12912;SDS011;6524;51.368;11.984;2023-12-07T11:28:54;16.60;;;13.00;;
12912;SDS011;6524;51.368;11.984;2023-12-07T11:33:55;17.70;;;12.25;;
12912;SDS011;6524;51.368;11.984;2023-12-07T11:44:09;17.33;;;13.03;;
12912;SDS011;6524;51.368;11.984;2023-12-07T11:49:10;16.50;;;12.25;;
12912;SDS011;6524;51.368;11.984;2023-12-07T11:54:12;17.58;;;12.85;;
12912;SDS011;6524;51.368;11.984;2023-12-07T11:59:14;13.88;;;11.35;;
12912;SDS011;6524;51.368;11.984;2023-12-07T12:04:15;16.85;;;12.45;;
12912;SDS011;6524;51.368;11.984;2023-12-07T12:09:17;15.95;;;11.80;;
12912;SDS011;6524;51.368;11.984;2023-12-07T12:14:20;15.43;;;12.38;;
12912;SDS011;6524;51.368;11.984;2023-12-07T12:19:22;15.52;;;11.38;;
12912;SDS011;6524;51.368;11.984;2023-12-07T12:24:23;15.90;;;11.40;;
12912;SDS011;6524;51.368;11.984;2023-12-07T12:29:24;13.05;;;11.45;;
12912;SDS011;6524;51.368;11.984;2023-12-07T12:34:24;13.35;;;10.68;;
12912;SDS011;6524;51.368;11.984;2023-12-07T12:39:28;12.70;;;10.40;;
12912;SDS011;6524;51.368;11.984;2023-12-07T12:44:30;13.27;;;11.38;;
12912;SDS011;6524;51.368;11.984;2023-12-07T12:49:35;12.75;;;11.07;;
12912;SDS011;6524;51.368;11.984;2023-12-07T12:54:36;13.88;;;11.18;;
12912;SDS011;6524;51.368;11.984;2023-12-07T12:59:36;13.27;;;10.88;;
12912;SDS011;6524;51.368;11.984;2023-12-07T13:04:37;14.82;;;11.40;;
12912;SDS011;6524;51.368;11.984;2023-12-07T13:09:38;14.23;;;10.43;;
12912;SDS011;6524;51.368;11.984;2023-12-07T13:14:39;12.48;;;10.63;;
12912;SDS011;6524;51.368;11.984;2023-12-07T13:19:40;14.20;;;10.65;;
12912;SDS011;6524;51.368;11.984;2023-12-07T13:24:40;10.63;;;9.18;;
12912;SDS011;6524;51.368;11.984;2023-12-07T13:29:41;11.27;;;9.50;;
12912;SDS011;6524;51.368;11.984;2023-12-07T13:34:41;10.68;;;8.88;;
12912;SDS011;6524;51.368;11.984;2023-12-07T13:39:42;11.70;;;8.48;;
12912;SDS011;6524;51.368;11.984;2023-12-07T13:44:43;9.57;;;8.52;;
12912;SDS011;6524;51.368;11.984;2023-12-07T13:49:43;9.63;;;8.27;;
12912;SDS011;6524;51.368;11.984;2023-12-07T13:54:43;10.85;;;8.90;;
12912;SDS011;6524;51.368;11.984;2023-12-07T13:59:44;10.63;;;9.45;;
12912;SDS011;6524;51.368;11.984;2023-12-07T14:04:45;12.63;;;10.85;;
12912;SDS011;6524;51.368;11.984;2023-12-07T14:09:47;15.93;;;11.60;;
12912;SDS011;6524;51.368;11.984;2023-12-07T14:14:49;14.23;;;11.73;;
12912;SDS011;6524;51.368;11.984;2023-12-07T14:19:49;14.88;;;11.10;;
12912;SDS011;6524;51.368;11.984;2023-12-07T14:24:50;13.93;;;11.60;;
12912;SDS011;6524;51.368;11.984;2023-12-07T14:29:52;14.82;;;11.27;;
12912;SDS011;6524;51.368;11.984;2023-12-07T14:34:53;16.73;;;12.95;;
12912;SDS011;6524;51.368;11.984;2023-12-07T14:39:53;15.80;;;11.88;;
12912;SDS011;6524;51.368;11.984;2023-12-07T14:44:54;16.87;;;12.70;;
12912;SDS011;6524;51.368;11.984;2023-12-07T14:49:55;18.13;;;12.48;;
12912;SDS011;6524;51.368;11.984;2023-12-07T14:54:56;18.17;;;13.32;;
12912;SDS011;6524;51.368;11.984;2023-12-07T14:59:56;17.67;;;13.00;;
12912;SDS011;6524;51.368;11.984;2023-12-07T15:04:58;17.87;;;13.60;;
12912;SDS011;6524;51.368;11.984;2023-12-07T15:09:58;18.20;;;13.77;;
12912;SDS011;6524;51.368;11.984;2023-12-07T15:14:58;18.07;;;13.50;;
12912;SDS011;6524;51.368;11.984;2023-12-07T15:19:59;21.17;;;13.50;;
12912;SDS011;6524;51.368;11.984;2023-12-07T15:24:59;18.57;;;13.23;;
12912;SDS011;6524;51.368;11.984;2023-12-07T15:29:59;17.43;;;13.10;;
12912;SDS011;6524;51.368;11.984;2023-12-07T15:35:00;21.35;;;13.90;;
12912;SDS011;6524;51.368;11.984;2023-12-07T15:40:00;22.08;;;14.80;;
12912;SDS011;6524;51.368;11.984;2023-12-07T15:45:00;22.60;;;14.10;;
12912;SDS011;6524;51.368;11.984;2023-12-07T15:50:01;19.97;;;14.00;;
12912;SDS011;6524;51.368;11.984;2023-12-07T15:55:02;23.13;;;16.30;;
12912;SDS011;6524;51.368;11.984;2023-12-07T16:00:03;22.08;;;15.43;;
12912;SDS011;6524;51.368;11.984;2023-12-07T16:05:03;25.40;;;16.63;;
12912;SDS011;6524;51.368;11.984;2023-12-07T16:10:07;22.73;;;16.27;;
12912;SDS011;6524;51.368;11.984;2023-12-07T16:15:08;21.55;;;16.10;;
12912;SDS011;6524;51.368;11.984;2023-12-07T16:20:09;23.77;;;16.10;;
12912;SDS011;6524;51.368;11.984;2023-12-07T16:25:15;23.83;;;15.43;;
12912;SDS011;6524;51.368;11.984;2023-12-07T16:30:15;22.88;;;16.02;;
12912;SDS011;6524;51.368;11.984;2023-12-07T16:35:18;23.08;;;16.33;;
12912;SDS011;6524;51.368;11.984;2023-12-07T16:40:19;23.48;;;16.80;;
12912;SDS011;6524;51.368;11.984;2023-12-07T16:45:19;22.40;;;15.67;;
12912;SDS011;6524;51.368;11.984;2023-12-07T16:50:20;22.33;;;16.00;;
12912;SDS011;6524;51.368;11.984;2023-12-07T16:55:22;23.75;;;17.48;;
12912;SDS011;6524;51.368;11.984;2023-12-07T17:00:22;24.08;;;16.52;;
12912;SDS011;6524;51.368;11.984;2023-12-07T17:05:28;22.00;;;15.97;;
12912;SDS011;6524;51.368;11.984;2023-12-07T17:10:28;21.90;;;15.57;;
12912;SDS011;6524;51.368;11.984;2023-12-07T17:15:29;23.30;;;17.00;;
12912;SDS011;6524;51.368;11.984;2023-12-07T17:20:29;20.35;;;14.43;;
12912;SDS011;6524;51.368;11.984;2023-12-07T17:25:30;21.85;;;15.38;;
12912;SDS011;6524;51.368;11.984;2023-12-07T17:30:30;22.42;;;14.77;;
12912;SDS011;6524;51.368;11.984;2023-12-07T17:35:30;21.70;;;14.70;;
12912;SDS011;6524;51.368;11.984;2023-12-07T17:40:31;22.90;;;16.20;;
12912;SDS011;6524;51.368;11.984;2023-12-07T17:45:31;23.38;;;16.45;;
12912;SDS011;6524;51.368;11.984;2023-12-07T17:50:31;20.17;;;15.68;;
12912;SDS011;6524;51.368;11.984;2023-12-07T17:55:32;20.70;;;15.25;;
12912;SDS011;6524;51.368;11.984;2023-12-07T18:00:32;18.05;;;13.65;;
12912;SDS011;6524;51.368;11.984;2023-12-07T18:05:32;20.08;;;14.43;;
12912;SDS011;6524;51.368;11.984;2023-12-07T18:10:33;17.35;;;12.98;;
12912;SDS011;6524;51.368;11.984;2023-12-07T18:15:33;18.05;;;13.15;;
12912;SDS011;6524;51.368;11.984;2023-12-07T18:20:33;16.85;;;11.57;;
12912;SDS011;6524;51.368;11.984;2023-12-07T18:25:34;17.33;;;13.43;;
12912;SDS011;6524;51.368;11.984;2023-12-07T18:30:34;16.30;;;12.40;;
12912;SDS011;6524;51.368;11.984;2023-12-07T18:35:35;17.83;;;12.15;;
12912;SDS011;6524;51.368;11.984;2023-12-07T18:40:35;16.83;;;12.13;;
12912;SDS011;6524;51.368;11.984;2023-12-07T18:45:44;13.77;;;10.68;;
12912;SDS011;6524;51.368;11.984;2023-12-07T18:50:44;11.23;;;8.38;;
12912;SDS011;6524;51.368;11.984;2023-12-07T18:55:45;13.73;;;9.48;;
12912;SDS011;6524;51.368;11.984;2023-12-07T19:00:45;13.05;;;10.50;;
12912;SDS011;6524;51.368;11.984;2023-12-07T19:05:45;12.35;;;9.70;;
12912;SDS011;6524;51.368;11.984;2023-12-07T19:10:46;14.20;;;10.47;;
12912;SDS011;6524;51.368;11.984;2023-12-07T19:15:46;13.07;;;9.68;;
12912;SDS011;6524;51.368;11.984;2023-12-07T19:20:47;13.38;;;10.32;;
12912;SDS011;6524;51.368;11.984;2023-12-07T19:25:48;14.10;;;10.83;;
12912;SDS011;6524;51.368;11.984;2023-12-07T19:30:49;15.20;;;10.57;;
12912;SDS011;6524;51.368;11.984;2023-12-07T19:35:50;15.18;;;10.93;;
12912;SDS011;6524;51.368;11.984;2023-12-07T19:40:50;16.70;;;11.07;;
12912;SDS011;6524;51.368;11.984;2023-12-07T19:45:50;15.13;;;10.97;;
12912;SDS011;6524;51.368;11.984;2023-12-07T19:50:51;17.33;;;12.15;;
12912;SDS011;6524;51.368;11.984;2023-12-07T19:55:51;15.40;;;11.27;;
12912;SDS011;6524;51.368;11.984;2023-12-07T20:00:52;16.27;;;10.93;;
12912;SDS011;6524;51.368;11.984;2023-12-07T20:05:52;16.53;;;11.07;;
12912;SDS011;6524;51.368;11.984;2023-12-07T20:10:52;16.90;;;12.20;;
12912;SDS011;6524;51.368;11.984;2023-12-07T20:15:53;17.33;;;12.13;;
12912;SDS011;6524;51.368;11.984;2023-12-07T20:20:53;15.47;;;12.07;;
12912;SDS011;6524;51.368;11.984;2023-12-07T20:25:53;19.50;;;13.53;;
12912;SDS011;6524;51.368;11.984;2023-12-07T20:30:55;20.43;;;13.63;;
12912;SDS011;6524;51.368;11.984;2023-12-07T20:35:55;16.63;;;13.03;;
12912;SDS011;6524;51.368;11.984;2023-12-07T20:40:55;18.30;;;13.20;;
12912;SDS011;6524;51.368;11.984;2023-12-07T20:45:56;21.10;;;13.53;;
12912;SDS011;6524;51.368;11.984;2023-12-07T20:50:56;20.10;;;14.60;;
12912;SDS011;6524;51.368;11.984;2023-12-07T20:55:57;20.93;;;15.13;;
12912;SDS011;6524;51.368;11.984;2023-12-07T21:00:58;19.27;;;14.27;;
12912;SDS011;6524;51.368;11.984;2023-12-07T21:05:58;18.70;;;13.00;;
12912;SDS011;6524;51.368;11.984;2023-12-07T21:10:59;20.73;;;13.97;;
12912;SDS011;6524;51.368;11.984;2023-12-07T21:15:59;19.03;;;13.77;;
12912;SDS011;6524;51.368;11.984;2023-12-07T21:21:00;20.43;;;13.03;;
12912;SDS011;6524;51.368;11.984;2023-12-07T21:26:02;19.53;;;12.33;;
12912;SDS011;6524;51.368;11.984;2023-12-07T21:31:02;20.83;;;13.33;;
12912;SDS011;6524;51.368;11.984;2023-12-07T21:36:03;19.97;;;12.97;;
12912;SDS011;6524;51.368;11.984;2023-12-07T21:41:04;18.00;;;12.53;;
12912;SDS011;6524;51.368;11.984;2023-12-07T21:46:04;21.60;;;14.23;;
12912;SDS011;6524;51.368;11.984;2023-12-07T21:51:04;22.23;;;14.27;;
12912;SDS011;6524;51.368;11.984;2023-12-07T21:56:05;18.70;;;13.37;;
12912;SDS011;6524;51.368;11.984;2023-12-07T22:01:05;17.73;;;12.67;;
12912;SDS011;6524;51.368;11.984;2023-12-07T22:06:06;18.80;;;13.47;;
12912;SDS011;6524;51.368;11.984;2023-12-07T22:11:08;21.10;;;13.70;;
12912;SDS011;6524;51.368;11.984;2023-12-07T22:16:08;21.17;;;13.93;;
12912;SDS011;6524;51.368;11.984;2023-12-07T22:21:09;19.47;;;14.00;;
12912;SDS011;6524;51.368;11.984;2023-12-07T22:26:10;21.47;;;13.63;;
12912;SDS011;6524;51.368;11.984;2023-12-07T22:31:11;19.80;;;13.43;;
12912;SDS011;6524;51.368;11.984;2023-12-07T22:36:14;17.77;;;13.33;;
12912;SDS011;6524;51.368;11.984;2023-12-07T22:41:15;21.20;;;13.90;;
12912;SDS011;6524;51.368;11.984;2023-12-07T22:46:15;18.53;;;13.13;;
12912;SDS011;6524;51.368;11.984;2023-12-07T22:51:16;20.57;;;13.80;;
12912;SDS011;6524;51.368;11.984;2023-12-07T22:56:16;17.93;;;12.30;;
12912;SDS011;6524;51.368;11.984;2023-12-07T23:01:16;18.43;;;13.13;;
12912;SDS011;6524;51.368;11.984;2023-12-07T23:06:17;19.10;;;13.13;;
12912;SDS011;6524;51.368;11.984;2023-12-07T23:11:17;20.30;;;13.40;;
12912;SDS011;6524;51.368;11.984;2023-12-07T23:16:18;22.47;;;13.60;;
12912;SDS011;6524;51.368;11.984;2023-12-07T23:21:20;19.93;;;13.40;;
12912;SDS011;6524;51.368;11.984;2023-12-07T23:26:20;22.27;;;13.37;;
12912;SDS011;6524;51.368;11.984;2023-12-07T23:31:21;18.03;;;13.17;;
12912;SDS011;6524;51.368;11.984;2023-12-07T23:36:24;18.65;;;14.00;;
12912;SDS011;6524;51.368;11.984;2023-12-07T23:41:46;22.87;;;14.83;;
12912;SDS011;6524;51.368;11.984;2023-12-07T23:46:47;23.30;;;15.70;;
12912;SDS011;6524;51.368;11.984;2023-12-07T23:51:50;23.10;;;16.20;;
12912;SDS011;6524;51.368;11.984;2023-12-07T23:56:51;24.30;;;16.47;;
